createdAt,value
2019-03-23T00:00:07.860Z,69.20
2019-03-23T00:02:39.697Z,70.70
2019-03-23T00:05:10.359Z,72.62
2019-03-23T00:07:40.693Z,74.20
2019-03-23T00:10:11.180Z,77.42
2019-03-23T00:12:43.033Z,76.77
2019-03-23T00:15:15.199Z,76.50
2019-03-23T00:17:45.521Z,78.83
2019-03-23T00:20:15.808Z,81.02
2019-03-23T00:22:47.614Z,84.45
2019-03-23T00:25:17.958Z,84.10
2019-03-23T00:27:48.363Z,82.62
2019-03-23T00:30:18.820Z,85.20
2019-03-23T00:32:49.196Z,84.77
2019-03-23T00:35:20.796Z,85.55
2019-03-23T00:37:51.218Z,87.42
2019-03-23T00:40:21.653Z,87.37
2019-03-23T00:42:52.410Z,88.58
2019-03-23T00:45:22.656Z,87.27
2019-03-23T00:47:52.978Z,87.33
2019-03-23T00:50:23.203Z,85.12
2019-03-23T00:52:53.541Z,85.77
2019-03-23T00:55:23.800Z,84.87
2019-03-23T00:57:54.106Z,85.20
2019-03-23T01:00:24.390Z,82.57
2019-03-23T01:02:54.736Z,80.92
2019-03-23T01:05:25.019Z,83.03
2019-03-23T01:07:55.320Z,80.85
2019-03-23T01:10:25.580Z,81.87
2019-03-23T01:12:55.824Z,81.02
2019-03-23T01:15:27.014Z,81.05
2019-03-23T01:17:57.366Z,79.82
2019-03-23T01:20:27.647Z,80.45
2019-03-23T01:22:58.299Z,80.42
2019-03-23T01:25:28.566Z,81.15
2019-03-23T01:27:58.944Z,79.77
2019-03-23T01:30:29.228Z,80.75
2019-03-23T01:32:59.482Z,76.40
2019-03-23T01:35:30.321Z,77.62
2019-03-23T01:38:00.735Z,77.47
2019-03-23T01:40:31.090Z,78.62
2019-03-23T01:43:01.364Z,75.67
2019-03-23T01:45:32.582Z,78.40
2019-03-23T01:48:02.917Z,76.87
2019-03-23T01:50:33.231Z,76.85
2019-03-23T01:53:03.453Z,76.92
2019-03-23T01:55:33.677Z,75.95
2019-03-23T01:58:03.990Z,74.27
2019-03-23T02:00:34.301Z,76.92
2019-03-23T02:03:04.913Z,73.30
2019-03-23T02:05:35.229Z,74.58
2019-03-23T02:08:05.519Z,74.15
2019-03-23T02:10:35.787Z,74.32
2019-03-23T02:13:06.099Z,74.50
2019-03-23T02:15:37.541Z,71.35
2019-03-23T02:18:07.919Z,69.42
2019-03-23T02:20:38.185Z,70.08
2019-03-23T02:23:08.494Z,70.15
2019-03-23T02:25:38.769Z,69.80
2019-03-23T02:28:09.099Z,71.07
2019-03-23T02:30:39.392Z,69.22
2019-03-23T02:33:09.697Z,67.08
2019-03-23T02:35:39.912Z,68.90
2019-03-23T02:38:10.245Z,65.65
2019-03-23T02:40:41.444Z,69.27
2019-03-23T02:43:13.213Z,67.40
2019-03-23T02:45:43.486Z,65.03
2019-03-23T02:48:13.830Z,66.67
2019-03-23T02:50:44.231Z,70.22
2019-03-23T02:53:14.488Z,68.40
2019-03-23T02:55:44.766Z,70.83
2019-03-23T02:58:15.078Z,69.03
2019-03-23T03:00:45.373Z,70.52
2019-03-23T03:03:15.673Z,72.27
2019-03-23T03:05:45.906Z,68.67
2019-03-23T03:08:16.149Z,68.90
2019-03-23T03:10:46.425Z,65.65
2019-03-23T03:13:16.662Z,66.42
2019-03-23T03:15:47.078Z,64.58
2019-03-23T03:18:17.398Z,66.17
2019-03-23T03:20:47.682Z,66.42
2019-03-23T03:23:17.978Z,64.40
2019-03-23T03:25:48.263Z,65.75
2019-03-23T03:28:18.500Z,67.47
2019-03-23T03:30:48.763Z,67.10
2019-03-23T03:33:19.076Z,66.15
2019-03-23T03:35:49.355Z,64.30
2019-03-23T03:38:19.604Z,64.75
2019-03-23T03:40:49.901Z,64.20
2019-03-23T03:43:20.220Z,63.20
2019-03-23T03:45:50.516Z,62.93
2019-03-23T03:48:20.811Z,64.72
2019-03-23T03:50:51.178Z,62.93
2019-03-23T03:53:21.849Z,60.78
2019-03-23T03:55:52.062Z,63.02
2019-03-23T03:58:22.386Z,63.30
2019-03-23T04:00:52.673Z,64.92
2019-03-23T04:03:22.907Z,63.00
2019-03-23T04:05:53.177Z,64.20
2019-03-23T04:08:23.475Z,61.50
2019-03-23T04:10:53.750Z,64.50
2019-03-23T04:13:23.993Z,61.28
2019-03-23T04:15:54.358Z,62.00
2019-03-23T04:18:24.702Z,62.43
2019-03-23T04:20:54.987Z,62.20
2019-03-23T04:23:25.306Z,62.62
2019-03-23T04:25:55.524Z,62.58
2019-03-23T04:28:26.162Z,61.53
2019-03-23T04:30:56.499Z,61.95
2019-03-23T04:33:26.885Z,63.05
2019-03-23T04:35:57.151Z,61.60
2019-03-23T04:38:27.439Z,62.27
2019-03-23T04:40:57.664Z,61.33
2019-03-23T04:43:27.995Z,63.30
2019-03-23T04:45:58.267Z,61.15
2019-03-23T04:48:28.573Z,62.38
2019-03-23T04:50:58.848Z,63.38
2019-03-23T04:53:29.223Z,63.98
2019-03-23T04:55:59.507Z,64.12
2019-03-23T04:58:30.868Z,63.55
2019-03-23T05:01:01.140Z,63.13
2019-03-23T05:03:37.784Z,64.35
2019-03-23T05:06:08.008Z,69.25
2019-03-23T05:08:38.356Z,70.30
2019-03-23T05:11:08.588Z,71.30
2019-03-23T05:13:38.877Z,71.70
2019-03-23T05:16:10.760Z,69.05
2019-03-23T05:18:41.245Z,69.35
2019-03-23T05:21:11.538Z,70.57
2019-03-23T05:23:42.408Z,68.02
2019-03-23T05:26:12.699Z,65.65
2019-03-23T05:28:43.048Z,67.05
2019-03-23T05:31:13.319Z,66.33
2019-03-23T05:33:43.706Z,64.20
2019-03-23T05:36:15.334Z,64.92
2019-03-23T05:38:45.852Z,65.42
2019-03-23T05:41:16.131Z,67.25
2019-03-23T05:43:47.556Z,64.95
2019-03-23T05:46:17.819Z,67.12
2019-03-23T05:48:48.187Z,68.60
2019-03-23T05:51:18.469Z,70.55
2019-03-23T05:53:49.923Z,66.05
2019-03-23T05:56:20.152Z,69.22
2019-03-23T05:58:50.587Z,68.67
2019-03-23T06:01:20.868Z,65.08
2019-03-23T06:03:51.235Z,67.25
2019-03-23T06:06:21.509Z,65.85
2019-03-23T06:08:55.287Z,65.87
2019-03-23T06:11:24.213Z,64.58
2019-03-23T06:13:54.850Z,66.62
2019-03-23T06:16:25.113Z,63.28
2019-03-23T06:18:55.488Z,68.83
2019-03-23T06:21:26.169Z,66.82
2019-03-23T06:23:56.560Z,67.70
2019-03-23T06:26:26.874Z,67.82
2019-03-23T06:28:57.658Z,64.95
2019-03-23T06:31:27.888Z,67.72
2019-03-23T06:33:58.087Z,69.25
2019-03-23T06:36:28.332Z,67.60
2019-03-23T06:39:05.497Z,68.15
2019-03-23T06:41:30.487Z,69.27
2019-03-23T06:44:00.688Z,75.32
2019-03-23T06:46:31.006Z,71.65
2019-03-23T06:49:01.284Z,71.77
2019-03-23T06:51:35.292Z,72.47
2019-03-23T06:54:05.571Z,69.75
2019-03-23T06:56:35.865Z,68.00
2019-03-23T06:59:06.137Z,71.25
2019-03-23T07:01:36.434Z,69.03
2019-03-23T07:04:08.035Z,68.78
2019-03-23T07:06:38.380Z,73.02
2019-03-23T07:09:16.164Z,71.70
2019-03-23T07:11:41.871Z,69.37
2019-03-23T07:14:12.187Z,71.57
2019-03-23T07:16:43.439Z,68.72
2019-03-23T07:19:13.707Z,66.37
2019-03-23T07:21:43.968Z,69.05
2019-03-23T07:24:14.722Z,69.82
2019-03-23T07:26:45.056Z,69.03
2019-03-23T07:29:15.359Z,70.30
2019-03-23T07:31:46.296Z,69.97
2019-03-23T07:34:16.516Z,70.17
2019-03-23T07:36:46.836Z,68.87
2019-03-23T07:39:26.942Z,67.32
2019-03-23T07:41:49.954Z,64.37
2019-03-23T07:44:20.229Z,64.47
2019-03-23T07:46:51.556Z,63.58
2019-03-23T07:49:21.837Z,65.00
2019-03-23T07:51:52.176Z,64.58
2019-03-23T07:54:22.392Z,61.85
2019-03-23T07:56:52.614Z,62.20
2019-03-23T07:59:22.879Z,60.00
2019-03-23T08:01:53.196Z,61.55
2019-03-23T08:04:23.489Z,58.65
2019-03-23T08:06:53.814Z,58.10
2019-03-23T08:09:24.088Z,59.30
2019-03-23T08:11:54.398Z,57.55
2019-03-23T08:14:24.684Z,58.38
2019-03-23T08:16:54.959Z,57.67
2019-03-23T08:19:25.270Z,55.23
2019-03-23T08:21:55.561Z,56.50
2019-03-23T08:24:25.762Z,55.15
2019-03-23T08:26:56.071Z,53.17
2019-03-23T08:29:26.347Z,55.70
2019-03-23T08:31:56.605Z,53.48
2019-03-23T08:34:26.878Z,54.35
2019-03-23T08:36:57.124Z,54.85
2019-03-23T08:39:27.406Z,53.17
2019-03-23T08:41:57.659Z,55.90
2019-03-23T08:44:27.939Z,56.80
2019-03-23T08:46:58.295Z,55.05
2019-03-23T08:49:29.588Z,54.30
2019-03-23T08:51:59.904Z,55.73
2019-03-23T08:54:31.213Z,53.52
2019-03-23T08:57:02.547Z,52.85
2019-03-23T08:59:32.789Z,53.45
2019-03-23T09:02:03.107Z,54.30
2019-03-23T09:04:33.375Z,53.58
2019-03-23T09:07:03.808Z,52.58
2019-03-23T09:09:34.124Z,51.15
2019-03-23T09:12:04.471Z,50.70
2019-03-23T09:14:43.257Z,53.30
2019-03-23T09:17:13.716Z,52.65
2019-03-23T09:19:44.539Z,51.58
2019-03-23T09:22:14.850Z,49.13
2019-03-23T09:24:45.146Z,50.48
2019-03-23T09:27:15.453Z,46.33
2019-03-23T09:29:45.785Z,45.65
2019-03-23T09:32:16.097Z,48.00
2019-03-23T09:34:46.372Z,47.30
2019-03-23T09:37:16.682Z,45.73
2019-03-23T09:39:47.039Z,45.15
2019-03-23T09:42:17.303Z,45.90
2019-03-23T09:44:49.061Z,43.35
2019-03-23T09:47:19.407Z,44.75
2019-03-23T09:49:49.603Z,41.18
2019-03-23T09:52:19.971Z,41.65
2019-03-23T09:54:50.234Z,39.08
2019-03-23T09:57:20.618Z,40.88
2019-03-23T09:59:50.821Z,39.23
2019-03-23T10:02:21.167Z,40.98
2019-03-23T10:04:53.285Z,40.28
2019-03-23T10:07:23.598Z,40.52
2019-03-23T10:09:54.216Z,40.28
2019-03-23T10:12:24.500Z,38.67
2019-03-23T10:14:56.596Z,39.38
2019-03-23T10:17:26.939Z,38.73
2019-03-23T10:19:57.126Z,38.15
2019-03-23T10:22:27.615Z,39.03
2019-03-23T10:24:57.850Z,40.35
2019-03-23T10:27:28.208Z,39.23
2019-03-23T10:29:58.489Z,38.13
2019-03-23T10:32:28.912Z,38.25
2019-03-23T10:34:59.183Z,38.58
2019-03-23T10:37:29.989Z,37.15
2019-03-23T10:40:00.320Z,37.78
2019-03-23T10:42:30.783Z,36.25
2019-03-23T10:45:01.127Z,35.58
2019-03-23T10:47:31.553Z,35.50
2019-03-23T10:50:02.870Z,34.50
2019-03-23T10:52:33.328Z,35.88
2019-03-23T10:55:04.795Z,35.30
2019-03-23T10:57:35.083Z,33.95
2019-03-23T11:00:11.394Z,35.23
2019-03-23T11:02:41.884Z,34.58
2019-03-23T11:05:13.348Z,34.13
2019-03-23T11:07:43.634Z,32.58
2019-03-23T11:10:14.494Z,34.05
2019-03-23T11:12:44.864Z,32.95
2019-03-23T11:15:16.084Z,32.42
2019-03-23T11:17:46.341Z,31.60
2019-03-23T11:20:17.078Z,28.27
2019-03-23T11:22:47.371Z,28.92
2019-03-23T11:25:17.869Z,27.75
2019-03-23T11:27:48.272Z,28.25
2019-03-23T11:30:18.543Z,27.40
2019-03-23T11:32:48.921Z,25.55
2019-03-23T11:35:19.359Z,25.50
2019-03-23T11:37:49.857Z,27.75
2019-03-23T11:40:20.528Z,26.82
2019-03-23T11:42:50.790Z,25.52
2019-03-23T11:45:21.075Z,25.20
2019-03-23T11:47:51.374Z,25.35
2019-03-23T11:50:21.638Z,23.85
2019-03-23T11:52:52.727Z,25.10
2019-03-23T11:55:22.963Z,24.67
2019-03-23T11:57:53.359Z,23.42
2019-03-23T12:00:23.562Z,22.87
2019-03-23T12:02:54.045Z,21.35
2019-03-23T12:05:24.308Z,23.00
2019-03-23T12:07:54.520Z,21.97
2019-03-23T12:10:24.855Z,21.90
2019-03-23T12:12:55.135Z,21.25
2019-03-23T12:15:25.403Z,21.35
2019-03-23T12:17:55.769Z,22.75
2019-03-23T12:20:26.061Z,20.95
2019-03-23T12:22:56.351Z,20.90
2019-03-23T12:25:26.554Z,20.02
2019-03-23T12:27:56.866Z,19.77
2019-03-23T12:30:28.068Z,20.62
2019-03-23T12:32:59.139Z,20.82
2019-03-23T12:35:29.415Z,18.60
2019-03-23T12:37:59.803Z,18.98
2019-03-23T12:40:30.093Z,17.85
2019-03-23T12:43:00.653Z,11.97
2019-03-23T12:45:30.847Z,12.23
2019-03-23T12:48:01.185Z,12.53
2019-03-23T12:50:31.454Z,12.28
2019-03-23T12:53:01.805Z,12.20
2019-03-23T12:55:33.293Z,12.55
2019-03-23T12:58:04.262Z,12.25
2019-03-23T13:00:34.476Z,11.63
2019-03-23T13:03:04.774Z,11.12
2019-03-23T13:05:35.040Z,13.18
2019-03-23T13:08:05.389Z,13.28
2019-03-23T13:10:35.587Z,12.58
2019-03-23T13:13:05.952Z,13.88
2019-03-23T13:15:36.290Z,14.25
2019-03-23T13:18:07.627Z,15.68
2019-03-23T13:20:37.893Z,13.50
2019-03-23T13:23:08.198Z,14.20
2019-03-23T13:25:38.476Z,13.10
2019-03-23T13:28:08.788Z,14.10
2019-03-23T13:30:39.062Z,13.95
2019-03-23T13:33:11.996Z,14.05
2019-03-23T13:35:43.367Z,14.03
2019-03-23T13:38:13.671Z,14.35
2019-03-23T13:40:43.954Z,14.23
2019-03-23T13:43:14.245Z,12.35
2019-03-23T13:45:44.577Z,13.25
2019-03-23T13:48:14.880Z,11.65
2019-03-23T13:50:45.150Z,14.43
2019-03-23T13:53:15.462Z,14.33
2019-03-23T13:55:47.484Z,13.62
2019-03-23T13:58:17.757Z,15.40
2019-03-23T14:00:48.121Z,12.80
2019-03-23T14:03:18.435Z,14.05
2019-03-23T14:05:48.711Z,13.05
2019-03-23T14:08:19.010Z,12.63
2019-03-23T14:10:50.977Z,12.37
2019-03-23T14:13:21.264Z,12.95
2019-03-23T14:15:52.539Z,13.35
2019-03-23T14:18:22.850Z,13.18
2019-03-23T14:20:53.113Z,14.73
2019-03-23T14:23:23.363Z,13.43
2019-03-23T14:25:53.643Z,13.15
2019-03-23T14:28:25.396Z,13.48
2019-03-23T14:30:55.552Z,12.88
2019-03-23T14:33:25.862Z,13.40
2019-03-23T14:35:56.172Z,12.93
2019-03-23T14:38:26.402Z,12.60
2019-03-23T14:40:56.664Z,12.75
2019-03-23T14:43:26.991Z,14.43
2019-03-23T14:45:57.276Z,14.15
2019-03-23T14:48:27.582Z,14.00
2019-03-23T14:50:58.868Z,16.27
2019-03-23T14:53:29.172Z,13.85
2019-03-23T14:55:59.354Z,14.38
2019-03-23T14:58:29.686Z,13.55
2019-03-23T15:01:00.005Z,12.78
2019-03-23T15:03:30.316Z,13.43
2019-03-23T15:06:01.541Z,13.45
2019-03-23T15:08:32.115Z,13.25
2019-03-23T15:11:02.396Z,12.63
2019-03-23T15:13:33.094Z,13.65
2019-03-23T15:16:04.241Z,14.13
2019-03-23T15:18:34.594Z,13.40
2019-03-23T15:21:05.115Z,14.30
2019-03-23T15:23:35.441Z,13.65
2019-03-23T15:26:05.719Z,13.25
2019-03-23T15:28:36.006Z,14.60
2019-03-23T15:31:06.263Z,14.20
2019-03-23T15:33:36.539Z,13.40
2019-03-23T15:36:06.828Z,11.63
2019-03-23T15:38:37.110Z,12.95
2019-03-23T15:41:07.387Z,12.23
2019-03-23T15:43:37.701Z,13.28
2019-03-23T15:46:07.995Z,14.65
2019-03-23T15:48:38.375Z,13.60
2019-03-23T15:51:08.645Z,13.85
2019-03-23T15:53:38.955Z,13.48
2019-03-23T15:56:09.223Z,13.88
2019-03-23T15:58:39.540Z,13.55
2019-03-23T16:01:09.879Z,13.60
2019-03-23T16:03:40.236Z,12.90
2019-03-23T16:06:10.622Z,13.50
2019-03-23T16:08:41.009Z,13.50
2019-03-23T16:11:11.373Z,13.10
2019-03-23T16:13:41.603Z,12.88
2019-03-23T16:16:11.953Z,12.40
2019-03-23T16:18:44.882Z,12.18
2019-03-23T16:21:15.263Z,13.22
2019-03-23T16:23:45.533Z,13.53
2019-03-23T16:26:16.384Z,13.40
2019-03-23T16:28:46.638Z,14.05
2019-03-23T16:31:16.945Z,13.35
2019-03-23T16:33:47.214Z,12.98
2019-03-23T16:36:17.534Z,12.40
2019-03-23T16:38:47.792Z,13.70
2019-03-23T16:41:18.122Z,12.95
2019-03-23T16:43:48.368Z,15.23
2019-03-23T16:46:19.061Z,14.93
2019-03-23T16:48:49.415Z,16.27
2019-03-23T16:51:19.610Z,15.85
2019-03-23T16:53:49.867Z,17.37
2019-03-23T16:56:20.146Z,16.30
2019-03-23T16:58:50.469Z,16.97
2019-03-23T17:01:20.731Z,17.57
2019-03-23T17:03:51.028Z,22.85
2019-03-23T17:06:21.708Z,25.45
2019-03-23T17:08:51.896Z,24.77
2019-03-23T17:11:22.146Z,23.67
2019-03-23T17:13:52.959Z,24.87
2019-03-23T17:16:24.642Z,25.30
2019-03-23T17:18:55.606Z,25.85
2019-03-23T17:21:25.934Z,24.67
2019-03-23T17:23:56.249Z,24.75
2019-03-23T17:26:26.607Z,25.62
2019-03-23T17:28:58.517Z,28.50
2019-03-23T17:31:28.923Z,27.50
2019-03-23T17:33:59.955Z,27.87
2019-03-23T17:36:30.293Z,28.10
2019-03-23T17:39:00.686Z,32.40
2019-03-23T17:41:32.476Z,34.40
2019-03-23T17:44:02.981Z,38.23
2019-03-23T17:46:34.296Z,48.00
2019-03-23T17:49:04.602Z,43.68
2019-03-23T17:51:34.867Z,36.13
2019-03-23T17:54:05.172Z,29.37
2019-03-23T17:56:35.537Z,27.50
2019-03-23T17:59:08.018Z,25.40
2019-03-23T18:01:38.254Z,25.30
2019-03-23T18:04:08.589Z,22.10
2019-03-23T18:06:38.868Z,20.62
2019-03-23T18:09:09.177Z,20.75
2019-03-23T18:11:39.380Z,25.02
2019-03-23T18:14:09.793Z,28.57
2019-03-23T18:16:40.298Z,25.45
2019-03-23T18:19:10.618Z,31.62
2019-03-23T18:21:40.853Z,33.42
2019-03-23T18:24:11.164Z,31.70
2019-03-23T18:26:41.480Z,34.65
2019-03-23T18:29:11.742Z,35.78
2019-03-23T18:31:42.064Z,38.60
2019-03-23T18:34:12.344Z,41.02
2019-03-23T18:36:42.726Z,48.13
2019-03-23T18:39:12.952Z,33.83
2019-03-23T18:41:43.264Z,31.85
2019-03-23T18:44:16.405Z,36.45
2019-03-23T18:46:46.350Z,39.83
2019-03-23T18:49:16.603Z,38.88
2019-03-23T18:51:46.919Z,35.75
2019-03-23T18:54:17.223Z,36.60
2019-03-23T18:56:47.568Z,34.60
2019-03-23T18:59:17.807Z,35.05
2019-03-23T19:01:48.187Z,34.18
2019-03-23T19:04:18.463Z,34.63
2019-03-23T19:06:48.824Z,36.88
2019-03-23T19:09:20.095Z,37.93
2019-03-23T19:11:50.413Z,38.73
2019-03-23T19:14:20.735Z,38.53
2019-03-23T19:16:51.063Z,37.95
2019-03-23T19:19:21.408Z,36.23
2019-03-23T19:21:51.735Z,36.68
2019-03-23T19:24:22.099Z,36.03
2019-03-23T19:26:52.379Z,33.42
2019-03-23T19:29:22.654Z,32.42
2019-03-23T19:31:52.995Z,29.32
2019-03-23T19:34:23.235Z,29.27
2019-03-23T19:36:53.556Z,27.25
2019-03-23T19:39:23.836Z,23.75
2019-03-23T19:41:54.072Z,24.27
2019-03-23T19:44:24.365Z,30.85
2019-03-23T19:46:54.688Z,35.65
2019-03-23T19:49:24.911Z,37.48
2019-03-23T19:51:55.201Z,40.58
2019-03-23T19:54:25.560Z,47.40
2019-03-23T19:56:58.403Z,53.13
2019-03-23T19:59:28.700Z,58.73
2019-03-23T20:01:59.120Z,56.77
2019-03-23T20:04:29.376Z,58.68
2019-03-23T20:06:59.724Z,59.85
2019-03-23T20:09:29.969Z,59.20
2019-03-23T20:12:00.334Z,58.68
2019-03-23T20:14:31.620Z,56.92
2019-03-23T20:17:02.000Z,57.48
2019-03-23T20:19:32.308Z,59.45
2019-03-23T20:22:02.654Z,58.58
2019-03-23T20:24:32.995Z,62.33
2019-03-23T20:27:03.318Z,63.08
2019-03-23T20:29:33.534Z,62.50
2019-03-23T20:32:03.832Z,62.98
2019-03-23T20:34:34.229Z,62.08
2019-03-23T20:37:04.490Z,61.80
2019-03-23T20:39:34.822Z,53.35
2019-03-23T20:42:05.132Z,48.08
2019-03-23T20:44:35.342Z,45.17
2019-03-23T20:47:05.629Z,46.30
2019-03-23T20:49:35.920Z,46.20
2019-03-23T20:52:07.314Z,40.90
2019-03-23T20:54:37.649Z,35.17
2019-03-23T20:57:07.925Z,35.03
2019-03-23T20:59:38.339Z,35.63
2019-03-23T21:02:08.569Z,32.83
2019-03-23T21:04:38.934Z,31.68
2019-03-23T21:07:09.435Z,29.72
2019-03-23T21:09:39.745Z,29.65
2019-03-23T21:12:10.020Z,29.80
2019-03-23T21:14:46.808Z,28.85
2019-03-23T21:17:17.087Z,27.87
2019-03-23T21:19:47.458Z,29.37
2019-03-23T21:22:17.799Z,28.35
2019-03-23T21:24:48.185Z,29.23
2019-03-23T21:27:19.492Z,28.67
2019-03-23T21:29:49.868Z,30.68
2019-03-23T21:32:20.173Z,29.02
2019-03-23T21:34:50.544Z,29.92
2019-03-23T21:37:20.858Z,27.58
2019-03-23T21:39:52.597Z,28.73
2019-03-23T21:42:22.908Z,29.50
2019-03-23T21:44:53.390Z,29.63
2019-03-23T21:47:23.690Z,30.43
2019-03-23T21:49:54.064Z,29.60
2019-03-23T21:52:24.528Z,28.87
2019-03-23T21:54:54.828Z,28.57
2019-03-23T21:57:25.100Z,30.08
2019-03-23T21:59:57.776Z,28.25
2019-03-23T22:02:28.076Z,27.85
2019-03-23T22:04:58.441Z,29.42
2019-03-23T22:07:28.824Z,29.77
2019-03-23T22:09:59.155Z,28.50
2019-03-23T22:12:29.443Z,29.77
2019-03-23T22:14:59.917Z,30.12
2019-03-23T22:17:30.197Z,30.82
2019-03-23T22:20:00.555Z,32.17
2019-03-23T22:22:30.841Z,31.12
2019-03-23T22:25:01.206Z,31.65
2019-03-23T22:27:31.516Z,34.48
2019-03-23T22:30:01.775Z,33.10
2019-03-23T22:32:32.055Z,33.50
2019-03-23T22:35:02.398Z,37.30
2019-03-23T22:37:32.671Z,36.35
2019-03-23T22:40:04.252Z,38.05
2019-03-23T22:42:41.188Z,38.90
2019-03-23T22:45:11.719Z,39.18
2019-03-23T22:47:45.871Z,39.30
2019-03-23T22:50:16.621Z,39.40
2019-03-23T22:52:46.925Z,39.05
2019-03-23T22:55:17.309Z,39.35
2019-03-23T22:57:47.573Z,39.53
2019-03-23T23:00:21.246Z,40.60
2019-03-23T23:02:53.046Z,41.00
2019-03-23T23:05:23.408Z,42.43
2019-03-23T23:07:53.690Z,41.77
2019-03-23T23:10:24.232Z,45.55
2019-03-23T23:12:54.529Z,46.42
2019-03-23T23:15:24.820Z,47.75
2019-03-23T23:17:55.036Z,48.45
2019-03-23T23:20:25.394Z,50.58
2019-03-23T23:22:55.601Z,49.53
2019-03-23T23:25:25.990Z,50.30
2019-03-23T23:27:56.275Z,49.63
2019-03-23T23:30:26.606Z,51.00
2019-03-23T23:32:57.994Z,52.60
2019-03-23T23:35:28.440Z,51.77
2019-03-23T23:37:58.654Z,54.65
2019-03-23T23:40:29.636Z,55.90
2019-03-23T23:43:00.024Z,55.33
2019-03-23T23:45:30.316Z,54.98
2019-03-23T23:48:00.682Z,56.10
2019-03-23T23:50:30.896Z,50.92
2019-03-23T23:53:01.260Z,50.25
2019-03-23T23:55:31.535Z,52.62
2019-03-23T23:58:01.885Z,51.80
